createdAt,value
2018-05-24T00:00:17.449Z,16.81
2018-05-24T00:02:49.209Z,16.76
2018-05-24T00:05:19.183Z,16.66
2018-05-24T00:07:51.016Z,16.61
2018-05-24T00:10:21.853Z,16.52
2018-05-24T00:12:52.259Z,16.56
2018-05-24T00:15:22.994Z,16.52
2018-05-24T00:17:52.922Z,16.50
2018-05-24T00:20:25.213Z,16.40
2018-05-24T00:22:56.148Z,16.36
2018-05-24T00:25:25.949Z,16.31
2018-05-24T00:27:58.298Z,16.29
2018-05-24T00:30:29.707Z,16.23
2018-05-24T00:32:59.757Z,16.22
2018-05-24T00:35:29.771Z,16.16
2018-05-24T00:38:01.653Z,16.27
2018-05-24T00:40:32.201Z,16.18
2018-05-24T00:43:04.407Z,16.26
2018-05-24T00:45:35.838Z,16.27
2018-05-24T00:48:07.274Z,16.27
2018-05-24T00:50:37.406Z,16.24
2018-05-24T00:53:08.174Z,16.20
2018-05-24T00:55:45.787Z,16.17
2018-05-24T00:58:17.164Z,16.23
2018-05-24T01:00:47.711Z,16.23
2018-05-24T01:03:17.720Z,16.15
2018-05-24T01:05:49.268Z,16.12
2018-05-24T01:08:20.624Z,16.17
2018-05-24T01:10:51.074Z,16.19
2018-05-24T01:13:23.652Z,16.09
2018-05-24T01:15:53.633Z,16.06
2018-05-24T01:18:23.885Z,16.10
2018-05-24T01:20:55.322Z,16.08
2018-05-24T01:23:27.582Z,16.05
2018-05-24T01:25:59.001Z,16.03
2018-05-24T01:28:28.972Z,16.08
2018-05-24T01:30:59.417Z,16.13
2018-05-24T01:33:29.664Z,16.13
2018-05-24T01:36:01.224Z,16.17
2018-05-24T01:38:31.048Z,16.11
2018-05-24T01:41:02.848Z,16.08
2018-05-24T01:43:34.482Z,16.16
2018-05-24T01:46:05.720Z,16.32
2018-05-24T01:48:35.690Z,16.38
2018-05-24T01:51:05.633Z,16.42
2018-05-24T01:53:35.530Z,16.42
2018-05-24T01:56:06.128Z,16.42
2018-05-24T01:58:37.965Z,16.45
2018-05-24T02:01:09.795Z,16.57
2018-05-24T02:03:40.273Z,16.72
2018-05-24T02:06:12.192Z,16.77
2018-05-24T02:08:42.228Z,16.75
2018-05-24T02:11:13.686Z,16.74
2018-05-24T02:13:45.441Z,16.84
2018-05-24T02:16:17.078Z,16.76
2018-05-24T02:18:48.812Z,16.76
2018-05-24T02:21:20.374Z,16.81
2018-05-24T02:23:50.282Z,16.66
2018-05-24T02:26:21.970Z,16.69
2018-05-24T02:28:51.843Z,16.78
2018-05-24T02:31:23.833Z,16.84
2018-05-24T02:33:55.871Z,16.73
2018-05-24T02:36:25.044Z,16.67
2018-05-24T02:38:56.771Z,16.71
2018-05-24T02:41:26.386Z,16.70
2018-05-24T02:43:58.507Z,16.58
2018-05-24T02:46:29.039Z,16.56
2018-05-24T02:49:00.960Z,16.66
2018-05-24T02:51:32.628Z,16.58
2018-05-24T02:54:03.823Z,16.61
2018-05-24T02:56:33.730Z,16.53
2018-05-24T02:59:05.665Z,16.61
2018-05-24T03:01:39.139Z,16.58
2018-05-24T03:04:11.219Z,16.46
2018-05-24T03:06:42.227Z,16.47
2018-05-24T03:09:14.468Z,16.52
2018-05-24T03:11:45.871Z,16.47
2018-05-24T03:14:15.819Z,16.46
2018-05-24T03:16:47.189Z,16.44
2018-05-24T03:19:19.210Z,16.38
2018-05-24T03:21:50.545Z,16.29
2018-05-24T03:24:20.504Z,16.19
2018-05-24T03:26:51.159Z,16.13
2018-05-24T03:29:22.731Z,16.03
2018-05-24T03:31:52.780Z,15.97
2018-05-24T03:34:23.665Z,15.92
2018-05-24T03:36:55.055Z,15.92
2018-05-24T03:39:26.900Z,15.78
2018-05-24T03:41:58.406Z,15.81
2018-05-24T03:44:29.239Z,15.83
2018-05-24T03:47:00.900Z,15.86
2018-05-24T03:49:30.745Z,15.93
2018-05-24T03:52:00.766Z,16.05
2018-05-24T03:54:30.584Z,16.16
2018-05-24T03:57:01.933Z,16.28
2018-05-24T03:59:58.521Z,16.37
2018-05-24T04:03:05.786Z,16.59
2018-05-24T04:05:37.094Z,16.77
2018-05-24T04:08:07.148Z,16.93
2018-05-24T04:10:38.856Z,17.06
2018-05-24T04:13:09.943Z,17.24
2018-05-24T04:15:41.413Z,17.39
2018-05-24T04:18:11.348Z,17.40
2018-05-24T04:20:42.662Z,17.45
2018-05-24T04:23:12.649Z,17.64
2018-05-24T04:25:42.469Z,17.78
2018-05-24T04:28:12.973Z,17.78
2018-05-24T04:30:43.156Z,17.80
2018-05-24T04:33:13.074Z,17.92
2018-05-24T04:35:44.825Z,17.46
2018-05-24T04:38:15.196Z,17.41
2018-05-24T04:40:46.608Z,17.43
2018-05-24T04:43:16.530Z,17.37
2018-05-24T04:45:47.808Z,17.59
2018-05-24T04:48:17.851Z,17.87
2018-05-24T04:50:49.535Z,18.25
2018-05-24T04:53:20.028Z,17.88
2018-05-24T04:55:49.226Z,17.75
2018-05-24T04:58:20.729Z,17.65
2018-05-24T05:00:52.108Z,17.61
2018-05-24T05:03:23.556Z,17.67
2018-05-24T05:05:53.465Z,17.64
2018-05-24T05:08:24.518Z,17.65
2018-05-24T05:10:54.489Z,17.76
2018-05-24T05:13:25.090Z,17.81
2018-05-24T05:15:56.593Z,17.90
2018-05-24T05:18:26.456Z,18.18
2018-05-24T05:20:56.902Z,18.30
2018-05-24T05:23:27.570Z,18.12
2018-05-24T05:25:58.626Z,17.98
2018-05-24T05:28:29.786Z,18.00
2018-05-24T05:31:00.780Z,17.95
2018-05-24T05:33:31.571Z,17.95
2018-05-24T05:36:01.556Z,18.10
2018-05-24T05:38:31.439Z,18.30
2018-05-24T05:41:01.784Z,18.46
2018-05-24T05:43:30.885Z,19.53
2018-05-24T05:46:02.470Z,20.16
2018-05-24T05:48:33.822Z,20.92
2018-05-24T05:51:05.773Z,20.93
2018-05-24T05:53:35.771Z,20.41
2018-05-24T05:56:07.152Z,19.80
2018-05-24T05:58:38.623Z,19.40
2018-05-24T06:01:09.968Z,19.13
2018-05-24T06:03:41.346Z,19.27
2018-05-24T06:06:12.038Z,19.51
2018-05-24T06:08:42.787Z,19.74
2018-05-24T06:11:14.230Z,19.63
2018-05-24T06:13:44.928Z,19.39
2018-05-24T06:16:14.725Z,19.18
2018-05-24T06:18:46.529Z,18.86
2018-05-24T06:21:18.152Z,18.89
2018-05-24T06:23:47.674Z,18.86
2018-05-24T06:26:19.050Z,18.73
2018-05-24T06:28:49.106Z,18.73
2018-05-24T06:31:20.734Z,18.63
2018-05-24T06:33:51.145Z,18.62
2018-05-24T06:36:22.626Z,18.56
2018-05-24T06:38:53.863Z,18.39
2018-05-24T06:41:23.797Z,18.47
2018-05-24T06:43:55.211Z,18.41
2018-05-24T06:46:25.512Z,18.40
2018-05-24T06:48:55.889Z,18.38
2018-05-24T06:51:26.456Z,18.40
2018-05-24T06:53:56.218Z,18.32
2018-05-24T06:56:28.125Z,18.30
2018-05-24T06:58:59.540Z,18.21
2018-05-24T07:01:29.425Z,18.27
2018-05-24T07:04:00.758Z,18.19
2018-05-24T07:06:32.139Z,18.18
2018-05-24T07:09:03.509Z,18.16
2018-05-24T07:11:34.774Z,18.14
2018-05-24T07:14:05.268Z,18.16
2018-05-24T07:16:35.526Z,18.00
2018-05-24T07:19:05.441Z,17.93
2018-05-24T07:21:35.307Z,17.77
2018-05-24T07:24:05.177Z,17.59
2018-05-24T07:26:34.367Z,17.46
2018-05-24T07:29:06.067Z,17.22
2018-05-24T07:31:37.447Z,16.93
2018-05-24T07:34:07.361Z,16.84
2018-05-24T07:36:37.089Z,16.70
2018-05-24T07:39:09.439Z,16.61
2018-05-24T07:41:40.748Z,16.57
2018-05-24T07:44:10.753Z,16.55
2018-05-24T07:46:41.875Z,16.49
2018-05-24T07:49:11.196Z,16.33
2018-05-24T07:51:42.146Z,16.20
2018-05-24T07:54:13.279Z,16.13
2018-05-24T07:56:45.143Z,16.14
2018-05-24T07:59:15.182Z,16.22
2018-05-24T08:01:46.518Z,16.11
2018-05-24T08:04:15.958Z,16.01
2018-05-24T08:06:47.116Z,15.93
2018-05-24T08:09:17.130Z,15.94
2018-05-24T08:11:46.842Z,15.97
2018-05-24T08:14:16.856Z,16.00
2018-05-24T08:16:47.915Z,16.01
2018-05-24T08:19:19.207Z,16.09
2018-05-24T08:21:50.741Z,16.13
2018-05-24T08:24:22.204Z,16.22
2018-05-24T08:26:53.601Z,16.41
2018-05-24T08:29:24.135Z,16.48
2018-05-24T08:31:56.214Z,16.73
2018-05-24T08:34:27.615Z,16.85
2018-05-24T08:36:57.542Z,16.97
2018-05-24T08:39:28.906Z,17.14
2018-05-24T08:42:00.985Z,17.22
2018-05-24T08:44:30.902Z,17.26
2018-05-24T08:47:02.597Z,17.45
2018-05-24T08:49:33.262Z,17.49
2018-05-24T08:52:03.485Z,17.71
2018-05-24T08:54:34.733Z,17.65
2018-05-24T08:57:04.576Z,17.88
2018-05-24T08:59:34.538Z,18.05
2018-05-24T09:02:05.955Z,18.22
2018-05-24T09:04:37.531Z,18.21
2018-05-24T09:07:08.476Z,18.17
2018-05-24T09:09:40.739Z,17.97
2018-05-24T09:12:13.085Z,17.83
2018-05-24T09:14:43.015Z,17.43
2018-05-24T09:17:12.929Z,17.20
2018-05-24T09:19:44.084Z,17.07
2018-05-24T09:22:15.815Z,17.03
2018-05-24T09:24:45.975Z,17.08
2018-05-24T09:27:17.276Z,17.26
2018-05-24T09:29:49.031Z,17.32
2018-05-24T09:32:19.092Z,17.41
2018-05-24T09:34:51.042Z,17.51
2018-05-24T09:37:22.409Z,17.58
2018-05-24T09:39:53.160Z,17.67
2018-05-24T09:42:23.091Z,17.88
2018-05-24T09:44:54.554Z,18.20
2018-05-24T09:47:26.399Z,18.75
2018-05-24T09:49:58.051Z,19.05
2018-05-24T09:52:29.965Z,19.28
2018-05-24T09:55:01.336Z,19.51
2018-05-24T09:57:32.635Z,19.42
2018-05-24T10:00:04.214Z,19.57
2018-05-24T10:02:35.087Z,19.71
2018-05-24T10:05:06.679Z,19.76
2018-05-24T10:07:38.083Z,19.84
2018-05-24T10:10:08.031Z,19.97
2018-05-24T10:12:38.007Z,20.05
2018-05-24T10:15:08.214Z,19.79
2018-05-24T10:17:37.447Z,19.96
2018-05-24T10:20:08.685Z,20.09
2018-05-24T10:22:41.572Z,20.12
2018-05-24T10:25:11.490Z,20.26
2018-05-24T10:27:43.111Z,20.70
2018-05-24T10:30:13.995Z,20.59
2018-05-24T10:32:44.118Z,20.72
2018-05-24T10:35:14.713Z,20.83
2018-05-24T10:37:46.513Z,20.70
2018-05-24T10:40:18.038Z,20.90
2018-05-24T10:42:48.453Z,20.74
2018-05-24T10:45:18.948Z,20.59
2018-05-24T10:47:48.814Z,20.73
2018-05-24T10:50:18.526Z,20.62
2018-05-24T10:52:51.104Z,20.49
2018-05-24T10:55:21.634Z,20.40
2018-05-24T10:57:53.549Z,20.48
2018-05-24T11:00:25.039Z,20.36
2018-05-24T11:02:55.515Z,20.58
2018-05-24T11:05:25.180Z,20.77
2018-05-24T11:07:57.059Z,21.06
2018-05-24T11:10:27.215Z,21.58
2018-05-24T11:12:57.182Z,22.37
2018-05-24T11:15:30.518Z,22.98
2018-05-24T11:18:02.850Z,23.11
2018-05-24T11:20:33.532Z,22.58
2018-05-24T11:23:05.098Z,22.12
2018-05-24T11:25:36.660Z,21.64
2018-05-24T11:28:08.970Z,21.45
2018-05-24T11:30:42.649Z,21.40
2018-05-24T11:33:12.642Z,21.46
2018-05-24T11:35:43.579Z,21.54
2018-05-24T11:38:13.614Z,21.61
2018-05-24T11:40:44.950Z,21.79
2018-05-24T11:43:16.558Z,21.63
2018-05-24T11:45:47.546Z,21.79
2018-05-24T11:48:18.900Z,21.84
2018-05-24T11:50:48.746Z,21.63
2018-05-24T11:53:20.692Z,21.65
2018-05-24T11:55:52.414Z,21.59
2018-05-24T11:58:23.755Z,21.32
2018-05-24T12:00:55.887Z,21.59
2018-05-24T12:03:27.418Z,21.69
2018-05-24T12:05:58.805Z,21.63
2018-05-24T12:08:30.912Z,21.80
2018-05-24T12:11:03.728Z,21.84
2018-05-24T12:13:35.075Z,21.89
2018-05-24T12:16:06.274Z,21.87
2018-05-24T12:18:36.500Z,21.78
2018-05-24T12:21:10.313Z,21.91
2018-05-24T12:23:41.554Z,21.82
2018-05-24T12:26:13.513Z,22.00
2018-05-24T12:28:44.469Z,22.17
2018-05-24T12:31:14.441Z,22.13
2018-05-24T12:33:45.661Z,22.23
2018-05-24T12:36:15.737Z,22.17
2018-05-24T12:38:45.950Z,22.21
2018-05-24T12:41:17.216Z,22.14
2018-05-24T12:43:47.635Z,22.09
2018-05-24T12:46:19.360Z,22.07
2018-05-24T12:48:48.698Z,21.86
2018-05-24T12:51:20.091Z,21.74
2018-05-24T12:53:50.172Z,21.58
2018-05-24T12:56:21.741Z,21.67
2018-05-24T12:58:51.121Z,21.63
2018-05-24T13:01:22.689Z,21.60
2018-05-24T13:03:53.313Z,21.46
2018-05-24T13:06:23.209Z,21.48
2018-05-24T13:08:53.158Z,21.47
2018-05-24T13:11:24.604Z,21.48
2018-05-24T13:13:56.202Z,21.38
2018-05-24T13:16:26.785Z,21.25
2018-05-24T13:18:58.150Z,21.19
2018-05-24T13:21:29.681Z,21.26
2018-05-24T13:24:01.161Z,21.21
2018-05-24T13:26:33.127Z,21.24
2018-05-24T13:29:04.531Z,21.33
2018-05-24T13:31:35.559Z,21.35
2018-05-24T13:34:05.413Z,21.36
2018-05-24T13:36:36.926Z,21.38
2018-05-24T13:39:08.235Z,21.46
2018-05-24T13:41:40.558Z,21.49
2018-05-24T13:44:12.067Z,21.62
2018-05-24T13:46:41.782Z,21.86
2018-05-24T13:49:11.735Z,22.04
2018-05-24T13:51:42.453Z,22.26
2018-05-24T13:54:12.421Z,22.44
2018-05-24T13:56:43.795Z,22.75
2018-05-24T13:59:14.000Z,22.98
2018-05-24T14:01:44.297Z,23.06
2018-05-24T14:04:16.151Z,23.33
2018-05-24T14:06:46.071Z,23.48
2018-05-24T14:09:18.030Z,23.56
2018-05-24T14:11:49.188Z,23.72
2018-05-24T14:14:19.430Z,23.87
2018-05-24T14:16:49.129Z,23.89
2018-05-24T14:19:19.062Z,24.05
2018-05-24T14:21:49.544Z,24.12
2018-05-24T14:24:19.410Z,24.20
2018-05-24T14:26:50.025Z,24.42
2018-05-24T14:29:19.753Z,24.58
2018-05-24T14:31:51.613Z,24.74
2018-05-24T14:34:22.889Z,24.95
2018-05-24T14:36:54.730Z,25.11
2018-05-24T14:39:25.804Z,24.93
2018-05-24T14:41:56.469Z,24.56
2018-05-24T14:44:25.844Z,24.78
2018-05-24T14:46:57.640Z,24.61
2018-05-24T14:49:27.433Z,25.36
2018-05-24T14:51:58.830Z,25.24
2018-05-24T14:54:30.139Z,24.85
2018-05-24T14:57:01.266Z,25.32
2018-05-24T14:59:31.369Z,24.66
2018-05-24T15:02:02.661Z,24.03
2018-05-24T15:04:32.580Z,23.85
2018-05-24T15:07:04.263Z,23.51
2018-05-24T15:09:35.616Z,23.30
2018-05-24T15:12:07.177Z,23.18
2018-05-24T15:14:38.789Z,23.14
2018-05-24T15:17:10.230Z,23.13
2018-05-24T15:19:42.510Z,22.84
2018-05-24T15:22:14.275Z,23.12
2018-05-24T15:24:43.427Z,23.19
2018-05-24T15:27:13.631Z,22.89
2018-05-24T15:29:45.084Z,23.01
2018-05-24T15:32:17.116Z,22.76
2018-05-24T15:34:46.974Z,22.78
2018-05-24T15:37:16.480Z,22.45
2018-05-24T15:39:47.197Z,22.58
2018-05-24T15:42:17.732Z,22.74
2018-05-24T15:44:49.108Z,22.72
2018-05-24T15:47:19.946Z,22.56
2018-05-24T15:49:51.413Z,22.68
2018-05-24T15:52:22.836Z,22.76
2018-05-24T15:54:54.488Z,22.64
2018-05-24T15:57:24.306Z,22.83
2018-05-24T15:59:55.818Z,22.99
2018-05-24T16:02:25.576Z,23.05
2018-05-24T16:04:55.515Z,23.00
2018-05-24T16:07:32.425Z,23.16
2018-05-24T16:10:03.896Z,23.27
2018-05-24T16:12:35.173Z,23.11
2018-05-24T16:15:05.353Z,23.28
2018-05-24T16:17:37.214Z,23.46
2018-05-24T16:20:07.171Z,23.47
2018-05-24T16:22:37.166Z,23.04
2018-05-24T16:25:07.205Z,23.22
2018-05-24T16:27:38.620Z,23.24
2018-05-24T16:30:09.127Z,23.15
2018-05-24T16:32:40.497Z,23.12
2018-05-24T16:35:11.123Z,22.87
2018-05-24T16:37:42.933Z,22.50
2018-05-24T16:40:12.990Z,22.70
2018-05-24T16:42:44.420Z,22.53
2018-05-24T16:45:14.334Z,22.29
2018-05-24T16:47:45.772Z,21.92
2018-05-24T16:50:18.522Z,21.87
2018-05-24T16:52:49.897Z,21.74
2018-05-24T16:55:19.857Z,21.76
2018-05-24T16:57:51.404Z,21.75
2018-05-24T17:00:22.397Z,21.51
2018-05-24T17:02:53.816Z,21.46
2018-05-24T17:05:24.657Z,21.60
2018-05-24T17:07:54.558Z,21.65
2018-05-24T17:10:26.739Z,21.48
2018-05-24T17:12:57.449Z,21.60
2018-05-24T17:15:28.856Z,21.52
2018-05-24T17:17:58.306Z,21.59
2018-05-24T17:20:29.759Z,21.59
2018-05-24T17:23:01.120Z,21.71
2018-05-24T17:25:31.008Z,21.75
2018-05-24T17:28:00.193Z,21.76
2018-05-24T17:30:29.372Z,21.86
2018-05-24T17:33:00.886Z,21.91
2018-05-24T17:35:30.906Z,21.89
2018-05-24T17:38:01.239Z,21.90
2018-05-24T17:40:32.630Z,21.53
2018-05-24T17:43:04.237Z,21.74
2018-05-24T17:45:33.804Z,21.66
2018-05-24T17:48:03.739Z,21.49
2018-05-24T17:50:33.728Z,21.50
2018-05-24T17:53:05.175Z,21.41
2018-05-24T17:55:36.608Z,21.43
2018-05-24T17:58:07.919Z,21.19
2018-05-24T18:00:39.479Z,21.33
2018-05-24T18:03:09.625Z,21.18
2018-05-24T18:05:40.404Z,21.18
2018-05-24T18:08:10.313Z,21.19
2018-05-24T18:10:40.334Z,21.08
2018-05-24T18:13:10.257Z,21.10
2018-05-24T18:15:40.650Z,21.09
2018-05-24T18:18:11.941Z,21.15
2018-05-24T18:20:42.107Z,21.06
2018-05-24T18:23:13.595Z,21.01
2018-05-24T18:25:45.074Z,20.87
2018-05-24T18:28:16.367Z,20.85
2018-05-24T18:30:47.753Z,20.71
2018-05-24T18:33:17.721Z,20.74
2018-05-24T18:35:49.451Z,20.72
2018-05-24T18:38:21.567Z,20.76
2018-05-24T18:40:52.327Z,20.71
2018-05-24T18:43:22.021Z,20.55
2018-05-24T18:45:51.912Z,20.59
2018-05-24T18:48:21.929Z,20.58
2018-05-24T18:50:51.994Z,20.37
2018-05-24T18:53:23.088Z,20.48
2018-05-24T18:55:53.086Z,20.40
2018-05-24T18:58:23.795Z,20.33
2018-05-24T19:00:55.176Z,20.33
2018-05-24T19:03:25.585Z,20.30
2018-05-24T19:05:57.400Z,20.31
2018-05-24T19:08:27.408Z,20.10
2018-05-24T19:10:58.706Z,20.08
2018-05-24T19:13:28.811Z,20.13
2018-05-24T19:16:00.820Z,20.15
2018-05-24T19:18:30.740Z,20.02
2018-05-24T19:21:01.867Z,20.07
2018-05-24T19:23:33.847Z,20.05
2018-05-24T19:26:03.756Z,19.98
2018-05-24T19:28:35.167Z,19.99
2018-05-24T19:31:05.165Z,19.98
2018-05-24T19:33:35.775Z,19.98
2018-05-24T19:36:05.437Z,19.94
2018-05-24T19:38:35.244Z,19.92
2018-05-24T19:41:04.982Z,19.99
2018-05-24T19:43:36.373Z,19.93
2018-05-24T19:46:08.384Z,19.91
2018-05-24T19:48:39.655Z,19.83
2018-05-24T19:51:09.905Z,19.82
2018-05-24T19:53:39.792Z,19.78
2018-05-24T19:56:10.397Z,19.81
2018-05-24T19:58:42.126Z,19.82
2018-05-24T20:01:13.490Z,19.83
2018-05-24T20:03:45.084Z,19.81
2018-05-24T20:06:15.332Z,19.78
2018-05-24T20:08:45.314Z,19.79
2018-05-24T20:11:16.681Z,19.78
2018-05-24T20:13:47.209Z,19.76
2018-05-24T20:16:20.056Z,19.76
2018-05-24T20:18:53.453Z,19.70
2018-05-24T20:21:24.845Z,19.77
2018-05-24T20:23:57.678Z,19.71
2018-05-24T20:26:32.087Z,19.74
2018-05-24T20:29:03.369Z,19.75
2018-05-24T20:31:38.087Z,19.71
2018-05-24T20:34:11.828Z,19.70
2018-05-24T20:36:45.047Z,19.54
2018-05-24T20:39:16.629Z,19.56
2018-05-24T20:41:49.507Z,19.45
2018-05-24T20:44:22.380Z,19.61
2018-05-24T20:46:53.860Z,19.60
2018-05-24T20:49:26.038Z,19.52
2018-05-24T20:51:57.503Z,19.39
2018-05-24T20:54:30.738Z,19.62
2018-05-24T20:57:03.994Z,19.54
2018-05-24T20:59:37.718Z,19.41
2018-05-24T21:02:09.625Z,19.44
2018-05-24T21:04:41.711Z,19.50
2018-05-24T21:07:15.643Z,19.46
2018-05-24T21:09:47.058Z,19.48
2018-05-24T21:12:18.580Z,19.52
2018-05-24T21:14:51.312Z,19.52
2018-05-24T21:17:24.339Z,19.48
2018-05-24T21:19:58.299Z,19.47
2018-05-24T21:22:31.225Z,19.37
2018-05-24T21:25:04.056Z,19.31
2018-05-24T21:27:36.305Z,19.22
2018-05-24T21:30:08.204Z,19.37
2018-05-24T21:32:41.517Z,19.25
2018-05-24T21:35:12.875Z,19.25
2018-05-24T21:37:47.179Z,19.19
2018-05-24T21:40:18.332Z,19.30
2018-05-24T21:42:49.689Z,19.26
2018-05-24T21:45:19.641Z,19.32
2018-05-24T21:47:51.052Z,19.28
2018-05-24T21:50:23.963Z,19.13
2018-05-24T21:52:55.270Z,19.22
2018-05-24T21:55:29.650Z,19.17
2018-05-24T21:58:02.204Z,19.16
2018-05-24T22:00:33.604Z,19.14
2018-05-24T22:03:06.559Z,19.11
2018-05-24T22:05:38.112Z,19.13
2018-05-24T22:08:12.544Z,19.14
2018-05-24T22:10:44.530Z,19.07
2018-05-24T22:13:16.106Z,19.11
2018-05-24T22:15:45.397Z,19.03
2018-05-24T22:18:17.188Z,18.97
2018-05-24T22:20:48.841Z,18.96
2018-05-24T22:23:23.198Z,19.07
2018-05-24T22:25:57.475Z,18.95
2018-05-24T22:28:28.880Z,18.95
2018-05-24T22:31:01.694Z,18.93
2018-05-24T22:33:34.048Z,18.90
2018-05-24T22:36:05.457Z,18.86
2018-05-24T22:38:36.810Z,18.83
2018-05-24T22:41:09.741Z,18.81
2018-05-24T22:43:41.599Z,18.76
2018-05-24T22:46:16.123Z,18.81
2018-05-24T22:48:50.476Z,18.81
2018-05-24T22:51:24.127Z,18.82
2018-05-24T22:53:57.062Z,18.81
2018-05-24T22:56:31.390Z,18.78
2018-05-24T22:59:03.513Z,18.78
2018-05-24T23:01:37.261Z,18.80
2018-05-24T23:04:09.219Z,18.80
2018-05-24T23:06:40.780Z,18.77
2018-05-24T23:09:12.725Z,18.73
2018-05-24T23:11:47.061Z,18.73
2018-05-24T23:14:18.441Z,18.61
2018-05-24T23:16:49.841Z,18.68
2018-05-24T23:19:19.838Z,18.66
2018-05-24T23:21:51.002Z,18.65
2018-05-24T23:24:25.337Z,18.62
2018-05-24T23:26:58.179Z,18.65
2018-05-24T23:29:30.575Z,18.62
2018-05-24T23:32:03.382Z,18.62
2018-05-24T23:34:34.942Z,18.61
2018-05-24T23:37:05.918Z,18.57
2018-05-24T23:39:36.268Z,18.61
2018-05-24T23:42:08.537Z,18.59
2018-05-24T23:44:40.762Z,18.58
2018-05-24T23:47:13.504Z,18.56
2018-05-24T23:49:44.927Z,18.63
2018-05-24T23:52:17.883Z,18.59
2018-05-24T23:54:48.274Z,18.63
2018-05-24T23:57:19.876Z,18.67
2018-05-24T23:59:54.333Z,18.69
